Time;durP1;ratioP1;P1;durP2;ratioP2;P2;SDS_P1;SDS_P2;PMS_P1;PMS_P2;Temp;Humidity;BMP_temperature;BMP_pressure;BME280_temperature;BME280_humidity;BME280_pressure;Samples;Min_cycle;Max_cycle;Signal;HPM_P1;HPM_P2
2022/07/19 00:05:01;;;;;;;6.80;4.60;;;;;;;16.17;66.45;100388.39;216183;1274;140583;-64
2022/07/19 00:10:08;;;;;;;5.50;5.00;;;;;;;16.02;66.27;100388.19;216265;1274;139934;-64
2022/07/19 00:15:15;;;;;;;5.10;4.20;;;;;;;15.85;66.70;100390.83;215565;1272;141929;-63
2022/07/19 00:20:22;;;;;;;4.80;4.10;;;;;;;15.73;66.84;100388.02;215414;1274;141692;-63
2022/07/19 00:25:26;;;;;;;5.80;4.60;;;;;;;15.67;67.21;100390.69;216037;1274;142240;-63
2022/07/19 00:30:31;;;;;;;10.80;5.00;;;;;;;15.64;67.43;100389.35;215329;1272;141828;-63
2022/07/19 00:35:36;;;;;;;7.40;5.10;;;;;;;15.67;67.84;100393.05;214804;1274;143566;-64
2022/07/19 00:40:41;;;;;;;13.80;4.80;;;;;;;15.70;67.94;100394.75;214665;1274;145316;-65
2022/07/19 00:45:45;;;;;;;8.40;5.20;;;;;;;15.71;68.16;100394.92;214684;1274;140328;-64
2022/07/19 00:50:50;;;;;;;5.10;3.80;;;;;;;15.70;68.30;100395.56;213385;1274;141481;-64
2022/07/19 00:55:56;;;;;;;6.40;4.60;;;;;;;15.67;68.56;100386.55;214164;1274;139965;-65
2022/07/19 01:01:04;;;;;;;4.30;3.80;;;;;;;15.61;68.48;100384.75;213760;1274;141585;-64
2022/07/19 01:06:11;;;;;;;5.30;4.80;;;;;;;15.64;69.10;100382.05;213185;1274;140532;-63
2022/07/19 01:11:15;;;;;;;6.80;6.00;;;;;;;15.72;69.28;100382.15;213505;1274;140670;-63
2022/07/19 01:16:19;;;;;;;11.20;5.00;;;;;;;15.68;69.00;100374.41;213797;1276;141143;-66
2022/07/19 01:21:26;;;;;;;6.60;5.30;;;;;;;15.65;69.23;100378.40;212915;1274;141018;-64
2022/07/19 01:26:29;;;;;;;7.60;5.10;;;;;;;15.66;69.17;100375.79;213451;1274;143490;-65
2022/07/19 01:31:33;;;;;;;8.30;4.70;;;;;;;15.67;69.01;100370.15;213298;1274;141400;-64
2022/07/19 01:36:38;;;;;;;6.40;5.10;;;;;;;15.69;69.14;100369.48;214000;1274;141425;-64
2022/07/19 01:41:42;;;;;;;8.20;4.70;;;;;;;15.74;69.25;100370.98;213430;1274;140558;-63
2022/07/19 01:46:46;;;;;;;7.60;4.50;;;;;;;15.79;69.44;100378.13;213328;1274;142822;-65
2022/07/19 01:51:50;;;;;;;8.50;5.00;;;;;;;15.83;69.13;100377.20;213279;1274;142024;-65
2022/07/19 01:56:55;;;;;;;11.70;4.50;;;;;;;15.81;69.00;100382.93;213956;1275;141049;-64
2022/07/19 02:01:58;;;;;;;5.90;4.30;;;;;;;15.82;69.06;100380.05;214445;1274;142806;-64
2022/07/19 02:07:03;;;;;;;8.40;5.60;;;;;;;15.64;68.54;100377.75;215468;1274;141473;-63
2022/07/19 02:12:08;;;;;;;6.60;5.10;;;;;;;15.45;68.63;100368.21;216021;1274;140182;-65
2022/07/19 02:17:12;;;;;;;6.80;4.80;;;;;;;15.31;68.67;100363.36;216046;1274;141206;-66
2022/07/19 02:22:16;;;;;;;9.10;5.90;;;;;;;15.33;68.84;100363.65;215995;1274;140806;-66
2022/07/19 02:27:21;;;;;;;12.80;5.90;;;;;;;15.26;68.50;100361.54;215970;1274;140506;-66
2022/07/19 02:32:26;;;;;;;5.40;4.90;;;;;;;15.20;68.75;100366.84;213785;1271;141740;-64
2022/07/19 02:37:30;;;;;;;6.30;5.40;;;;;;;15.17;68.93;100364.92;215476;1274;141932;-65
2022/07/19 02:42:36;;;;;;;5.80;4.50;;;;;;;15.21;69.13;100367.34;215132;1274;139948;-65
2022/07/19 02:47:41;;;;;;;9.60;4.60;;;;;;;15.21;69.09;100366.05;214508;1273;140694;-65
2022/07/19 02:52:45;;;;;;;7.50;5.70;;;;;;;15.10;69.03;100361.23;215275;1274;141511;-65
2022/07/19 02:57:50;;;;;;;13.90;5.50;;;;;;;15.07;69.25;100359.25;213476;1274;142490;-66
2022/07/19 03:02:54;;;;;;;8.90;5.60;;;;;;;15.14;69.76;100356.56;213264;1275;225020;-63
2022/07/19 03:08:00;;;;;;;11.50;5.30;;;;;;;15.23;69.90;100358.65;214465;1274;141469;-65
2022/07/19 03:13:05;;;;;;;8.80;5.60;;;;;;;15.27;69.72;100364.02;213399;1274;145623;-65
2022/07/19 03:18:10;;;;;;;11.70;5.10;;;;;;;15.27;69.76;100363.70;214944;1274;140603;-65
2022/07/19 03:23:14;;;;;;;9.30;5.50;;;;;;;15.35;69.96;100366.10;214320;1275;141983;-64
2022/07/19 03:28:19;;;;;;;5.80;4.30;;;;;;;15.42;70.06;100361.77;213442;1274;141401;-66
2022/07/19 03:33:22;;;;;;;7.30;5.80;;;;;;;15.42;69.64;100359.41;213979;1274;141367;-65
2022/07/19 03:38:26;;;;;;;7.40;5.60;;;;;;;15.39;69.78;100361.20;213619;1274;143352;-65
2022/07/19 03:43:30;;;;;;;8.90;5.10;;;;;;;15.50;70.05;100357.25;214607;1274;142897;-65
2022/07/19 03:48:34;;;;;;;5.50;5.00;;;;;;;15.59;69.99;100360.29;215049;1273;143145;-65
2022/07/19 03:53:39;;;;;;;93.50;12.80;;;;;;;15.58;69.76;100357.04;214461;1275;139756;-65
2022/07/19 03:58:44;;;;;;;9.00;4.90;;;;;;;15.72;70.11;100355.58;214402;1274;140546;-65
2022/07/19 04:03:48;;;;;;;10.60;5.30;;;;;;;15.99;70.04;100358.20;214498;1275;140466;-65
2022/07/19 04:08:53;;;;;;;6.70;5.30;;;;;;;16.24;69.95;100360.14;216248;1275;140765;-65
2022/07/19 04:13:57;;;;;;;10.80;6.50;;;;;;;16.49;69.92;100355.72;215285;1274;139900;-65
2022/07/19 04:19:02;;;;;;;9.10;5.80;;;;;;;16.70;69.77;100360.40;215840;1274;139838;-65
2022/07/19 04:24:07;;;;;;;8.60;4.30;;;;;;;16.91;69.62;100367.79;215944;1276;141685;-65
2022/07/19 04:29:14;;;;;;;6.10;4.40;;;;;;;17.12;69.26;100367.05;215882;1277;140452;-66
2022/07/19 04:34:20;;;;;;;6.80;4.50;;;;;;;17.29;68.71;100375.48;215849;1274;141075;-65
2022/07/19 04:39:24;;;;;;;17.90;5.70;;;;;;;17.42;68.31;100376.55;213926;1274;140392;-65
2022/07/19 04:44:28;;;;;;;6.60;5.70;;;;;;;17.50;68.43;100386.33;215352;1274;139930;-64
2022/07/19 04:49:33;;;;;;;5.90;5.10;;;;;;;17.49;68.28;100380.50;213693;1274;141448;-65
2022/07/19 04:54:36;;;;;;;8.00;6.00;;;;;;;17.55;68.38;100383.00;215641;1274;143151;-65
2022/07/19 04:59:41;;;;;;;10.60;5.00;;;;;;;17.67;68.06;100377.09;213932;1274;162885;-65
2022/07/19 05:04:44;;;;;;;8.90;5.20;;;;;;;17.76;67.81;100374.66;214974;1274;231171;-65
2022/07/19 05:09:48;;;;;;;7.50;5.90;;;;;;;17.82;67.83;100371.82;213657;1274;140088;-64
2022/07/19 05:14:53;;;;;;;6.60;4.50;;;;;;;17.88;67.32;100371.95;214666;1274;141427;-65
2022/07/19 05:19:58;;;;;;;8.30;6.00;;;;;;;17.92;67.08;100370.77;213873;1274;141394;-65
2022/07/19 05:25:02;;;;;;;5.40;4.40;;;;;;;17.96;67.10;100368.46;213490;1274;141306;-65
2022/07/19 05:30:07;;;;;;;8.90;5.30;;;;;;;17.96;67.00;100365.45;214691;1274;140582;-65
2022/07/19 05:35:13;;;;;;;7.20;4.60;;;;;;;17.99;67.03;100369.60;213168;1276;141853;-64
2022/07/19 05:40:18;;;;;;;6.40;4.40;;;;;;;18.06;67.08;100368.79;213307;1276;141951;-64
2022/07/19 05:45:22;;;;;;;8.00;5.10;;;;;;;18.17;66.98;100365.93;213536;1274;141992;-64
2022/07/19 05:50:27;;;;;;;6.30;5.70;;;;;;;18.34;66.87;100362.38;214472;1276;142054;-64
2022/07/19 05:55:31;;;;;;;6.30;5.80;;;;;;;18.59;66.78;100365.23;214218;1276;140851;-64
2022/07/19 06:00:36;;;;;;;8.10;5.00;;;;;;;18.86;66.53;100363.36;214577;1274;141378;-67
2022/07/19 06:05:41;;;;;;;8.50;5.40;;;;;;;19.07;66.00;100367.83;214717;1274;139984;-64
2022/07/19 06:10:46;;;;;;;6.40;4.50;;;;;;;19.31;65.70;100366.94;214892;1272;141869;-65
2022/07/19 06:15:49;;;;;;;8.90;4.80;;;;;;;19.59;65.35;100370.06;215442;1274;139710;-65
2022/07/19 06:20:53;;;;;;;7.80;5.30;;;;;;;19.83;64.85;100362.95;216214;1274;140867;-65
2022/07/19 06:25:58;;;;;;;6.70;5.60;;;;;;;20.14;64.35;100365.60;216257;1274;141593;-65
2022/07/19 06:31:02;;;;;;;8.60;5.20;;;;;;;20.49;63.68;100373.23;216265;1274;139736;-65
2022/07/19 06:36:08;;;;;;;4.80;4.40;;;;;;;20.93;63.17;100375.89;215181;1274;150351;-65
2022/07/19 06:41:14;;;;;;;4.70;4.20;;;;;;;21.30;62.45;100376.30;216133;1274;140460;-65
2022/07/19 06:46:19;;;;;;;5.60;5.00;;;;;;;21.51;61.67;100373.58;215868;1274;140458;-65
2022/07/19 06:51:23;;;;;;;4.00;3.70;;;;;;;21.77;61.01;100373.13;214447;1274;161850;-64
2022/07/19 06:56:27;;;;;;;6.70;4.10;;;;;;;21.93;59.59;100372.04;214028;1274;140500;-64
2022/07/19 07:01:35;;;;;;;5.80;4.80;;;;;;;21.92;58.53;100369.66;214172;1274;141522;-65
2022/07/19 07:06:42;;;;;;;6.90;3.90;;;;;;;22.19;58.59;100371.74;215135;1274;140069;-65
2022/07/19 07:11:48;;;;;;;8.80;3.80;;;;;;;22.63;57.75;100376.72;214363;1274;139391;-64
2022/07/19 07:16:52;;;;;;;7.40;5.40;;;;;;;23.19;57.17;100377.41;214032;1276;141528;-64
2022/07/19 07:22:00;;;;;;;5.20;4.80;;;;;;;23.67;56.42;100375.83;214196;1274;140171;-65
2022/07/19 07:27:06;;;;;;;5.80;4.10;;;;;;;24.05;55.74;100377.63;213538;1274;141719;-64
2022/07/19 07:32:11;;;;;;;7.10;4.50;;;;;;;24.51;54.63;100381.90;213634;1274;141554;-64
2022/07/19 07:37:18;;;;;;;7.10;4.70;;;;;;;24.87;53.89;100381.55;214629;1274;140915;-64
2022/07/19 07:42:24;;;;;;;;;;;;;;;25.43;52.75;100378.02;214727;1274;139827;-64
2022/07/19 07:47:30;;;;;;;3.70;3.40;;;;;;;26.61;52.23;100370.81;214334;1274;127302;-64
2022/07/19 07:52:36;;;;;;;7.00;3.90;;;;;;;27.71;50.14;100370.74;214212;1274;139850;-64
2022/07/19 07:57:41;;;;;;;;;;;;;;;28.60;48.98;100375.48;215233;1274;139792;-65
2022/07/19 08:02:49;;;;;;;5.10;3.60;;;;;;;29.21;47.53;100378.76;214636;1274;125758;-65
2022/07/19 08:07:56;;;;;;;6.50;4.10;;;;;;;29.65;46.16;100381.96;215256;1276;140080;-65
2022/07/19 08:13:02;;;;;;;6.80;3.70;;;;;;;29.97;45.25;100381.10;215658;1274;140117;-65
2022/07/19 08:18:12;;;;;;;7.20;4.00;;;;;;;30.39;43.85;100382.60;214867;1274;139678;-64
2022/07/19 08:23:17;;;;;;;4.30;3.90;;;;;;;30.58;42.40;100376.27;215259;1276;151805;-65
2022/07/19 08:28:27;;;;;;;3.50;3.00;;;;;;;30.83;41.86;100367.34;216031;1274;141362;-65
2022/07/19 08:33:38;;;;;;;4.60;2.80;;;;;;;31.14;40.85;100365.35;216093;1274;141626;-65
2022/07/19 08:38:50;;;;;;;12.00;3.30;;;;;;;31.40;39.81;100365.48;216258;1274;141400;-66
2022/07/19 08:44:04;;;;;;;4.60;2.80;;;;;;;31.58;38.74;100362.71;215037;1276;140869;-65
2022/07/19 08:49:16;;;;;;;4.80;3.70;;;;;;;31.74;38.30;100361.69;214901;1276;141489;-66
2022/07/19 08:54:27;;;;;;;3.50;3.20;;;;;;;31.92;38.06;100358.11;213602;1276;142547;-64
2022/07/19 08:59:45;;;;;;;5.30;4.10;;;;;;;31.99;37.05;100355.51;211658;1274;4123760;-66
2022/07/19 09:05:07;;;;;;;6.40;3.80;;;;;;;31.98;36.32;100356.89;214636;1274;140149;-65
2022/07/19 09:10:22;;;;;;;4.80;3.50;;;;;;;32.09;35.32;100347.19;214451;1274;140306;-65
2022/07/19 09:15:42;;;;;;;3.90;3.20;;;;;;;32.11;34.79;100339.42;214648;1274;140571;-65
2022/07/19 09:20:50;;;;;;;6.10;3.90;;;;;;;32.13;34.43;100337.31;214386;1274;139913;-65
2022/07/19 09:26:05;;;;;;;4.10;3.10;;;;;;;32.06;33.74;100332.40;214852;1274;139725;-65
2022/07/19 09:31:10;;;;;;;3.80;3.50;;;;;;;32.13;34.14;100330.63;214260;1274;139658;-65
2022/07/19 09:36:14;;;;;;;;;;;;;;;32.21;33.69;100332.13;214731;1274;139507;-66
2022/07/19 09:41:20;;;;;;;5.30;3.60;;;;;;;32.25;34.01;100332.86;214688;1276;127217;-65
2022/07/19 09:46:34;;;;;;;4.40;3.30;;;;;;;32.28;33.74;100332.05;214887;1274;140583;-65
2022/07/19 09:51:42;;;;;;;4.00;3.40;;;;;;;32.35;33.48;100328.95;214913;1274;141222;-66
2022/07/19 09:56:49;;;;;;;3.60;3.30;;;;;;;32.43;33.04;100329.39;214728;1274;141212;-66
2022/07/19 10:01:55;;;;;;;3.80;3.40;;;;;;;32.51;32.68;100325.66;214442;1274;140280;-65
2022/07/19 10:07:01;;;;;;;3.00;2.60;;;;;;;32.56;32.58;100326.77;214493;1274;141409;-66
2022/07/19 10:12:06;;;;;;;4.70;3.10;;;;;;;32.63;32.21;100324.08;213390;1274;140702;-65
2022/07/19 10:17:32;;;;;;;39.40;5.90;;;;;;;32.66;31.89;100323.18;215351;1274;236767;-66
2022/07/19 10:22:39;;;;;;;6.10;3.50;;;;;;;32.65;31.69;100311.88;216049;1274;142195;-68
2022/07/19 10:27:47;;;;;;;3.70;3.40;;;;;;;32.69;31.49;100317.07;215979;1274;140268;-67
2022/07/19 10:32:56;;;;;;;3.80;3.30;;;;;;;32.75;31.30;100307.95;214847;1274;140835;-65
2022/07/19 10:38:02;;;;;;;8.90;3.00;;;;;;;32.80;31.29;100305.73;215577;1274;141631;-66
2022/07/19 10:43:06;;;;;;;4.30;3.30;;;;;;;32.83;31.18;100300.27;216013;1274;140523;-66
2022/07/19 10:48:14;;;;;;;4.20;3.30;;;;;;;32.81;30.74;100293.85;214158;1275;141233;-66
2022/07/19 10:53:40;;;;;;;3.30;3.00;;;;;;;32.54;30.48;100289.29;214692;1277;141429;-66
2022/07/19 10:58:53;;;;;;;3.00;2.70;;;;;;;32.53;30.74;100288.32;215075;1274;140374;-66
2022/07/19 11:04:25;;;;;;;5.70;3.20;;;;;;;32.70;30.63;100282.30;215098;1274;139984;-67
2022/07/19 11:09:41;;;;;;;3.40;2.60;;;;;;;32.87;30.62;100281.25;214419;1274;140422;-66
2022/07/19 11:14:49;;;;;;;8.60;3.00;;;;;;;32.95;30.88;100284.77;214394;1275;140723;-65
2022/07/19 11:20:16;;;;;;;3.80;2.70;;;;;;;33.06;30.45;100287.05;213651;1277;141335;-65
2022/07/19 11:25:32;;;;;;;7.40;2.60;;;;;;;33.07;30.12;100282.00;213342;1275;140891;-65
2022/07/19 11:30:37;;;;;;;3.40;2.60;;;;;;;33.04;29.97;100267.04;213712;1276;140703;-66
2022/07/19 11:36:01;;;;;;;3.70;2.00;;;;;;;33.09;29.60;100270.27;213350;1275;140892;-65
2022/07/19 11:41:22;;;;;;;2.70;2.50;;;;;;;33.05;29.30;100265.88;214394;1275;141358;-66
2022/07/19 11:52:57;;;;;;;3.00;2.60;;;;;;;32.96;29.30;100255.52;213337;1275;140880;-65
2022/07/19 11:58:07;;;;;;;5.50;2.00;;;;;;;33.02;29.65;100246.58;214194;1275;141051;-65
2022/07/19 12:03:17;;;;;;;2.70;2.50;;;;;;;32.99;29.24;100242.36;213707;1276;141302;-65
2022/07/19 12:08:43;;;;;;;4.80;2.60;;;;;;;32.87;29.12;100240.77;214813;1277;140896;-65
2022/07/19 12:13:51;;;;;;;4.40;3.00;;;;;;;32.89;28.95;100236.07;215204;1276;139722;-66
2022/07/19 12:18:58;;;;;;;2.00;1.90;;;;;;;32.86;28.87;100235.16;214287;1277;139924;-65
2022/07/19 12:24:12;;;;;;;4.70;3.30;;;;;;;32.88;28.67;100228.87;213760;1277;141235;-65
2022/07/19 12:29:23;;;;;;;3.10;2.10;;;;;;;32.96;28.64;100228.05;216178;1274;142754;-66
2022/07/19 12:34:28;;;;;;;2.00;1.80;;;;;;;32.97;28.44;100222.86;215119;1274;140113;-65
2022/07/19 12:39:33;;;;;;;;;;;;;;;32.89;28.24;100223.20;216271;1273;140312;-68
2022/07/19 12:44:37;;;;;;;;;;;;;;;32.82;28.55;100223.34;216696;1274;126587;-68
2022/07/19 12:49:48;;;;;;;4.90;3.80;;;;;;;32.72;28.44;100217.19;216724;1274;126465;-68
2022/07/19 12:55:01;;;;;;;3.80;2.80;;;;;;;32.84;28.40;100208.94;215075;1276;140350;-65
2022/07/19 13:00:07;;;;;;;4.80;2.20;;;;;;;32.92;28.57;100206.52;214345;1276;142152;-67
2022/07/19 13:05:12;;;;;;;4.40;3.60;;;;;;;32.87;28.29;100199.19;215396;1274;140456;-68
2022/07/19 13:10:18;;;;;;;2.20;2.00;;;;;;;32.83;28.10;100203.88;214549;1277;140184;-66
2022/07/19 13:15:24;;;;;;;5.10;3.00;;;;;;;32.73;28.00;100201.51;213587;1276;140130;-66
2022/07/19 13:20:28;;;;;;;3.90;2.80;;;;;;;32.67;28.11;100201.27;214216;1274;139172;-66
2022/07/19 13:25:34;;;;;;;3.80;2.70;;;;;;;32.56;28.35;100190.83;213487;1275;141705;-66
2022/07/19 13:30:49;;;;;;;5.20;2.80;;;;;;;32.61;28.17;100186.10;213530;1277;141149;-68
2022/07/19 13:35:54;;;;;;;11.80;2.80;;;;;;;32.67;28.29;100178.30;213545;1275;140164;-67
2022/07/19 13:41:03;;;;;;;4.60;3.30;;;;;;;32.69;28.33;100184.41;213909;1276;141375;-65
2022/07/19 13:46:08;;;;;;;4.10;2.90;;;;;;;32.62;28.33;100180.42;213536;1277;139686;-66
2022/07/19 13:51:12;;;;;;;3.40;2.90;;;;;;;32.49;27.97;100181.73;213824;1274;139420;-65
2022/07/19 13:56:19;;;;;;;3.60;3.30;;;;;;;32.33;27.85;100167.08;214384;1276;140361;-66
2022/07/19 14:01:23;;;;;;;4.20;3.10;;;;;;;32.26;27.92;100163.41;214922;1274;139413;-66
2022/07/19 14:06:49;;;;;;;4.00;3.20;;;;;;;32.24;28.21;100160.06;214806;1276;140653;-65
2022/07/19 14:11:53;;;;;;;7.70;2.70;;;;;;;32.16;28.21;100157.48;214784;1274;234317;-67
2022/07/19 14:16:58;;;;;;;3.40;2.50;;;;;;;32.08;28.32;100155.01;215184;1275;140094;-66
2022/07/19 14:22:03;;;;;;;3.70;3.00;;;;;;;32.10;28.43;100150.83;214389;1277;140421;-68
2022/07/19 14:27:07;;;;;;;4.20;2.80;;;;;;;31.99;28.65;100147.27;215910;1274;142120;-67
2022/07/19 14:32:12;;;;;;;;;;;;;;;32.01;28.60;100143.70;216040;1276;139241;-66
2022/07/19 14:37:18;;;;;;;4.10;2.50;;;;;;;31.97;28.35;100144.33;216556;1275;126536;-67
2022/07/19 14:42:29;;;;;;;3.50;3.10;;;;;;;32.02;28.16;100144.64;215908;1274;140414;-67
2022/07/19 14:47:36;;;;;;;2.90;2.40;;;;;;;32.01;28.25;100137.22;214764;1274;140145;-67
2022/07/19 14:52:40;;;;;;;3.20;2.70;;;;;;;31.99;28.17;100132.30;215119;1274;139665;-67
2022/07/19 14:57:44;;;;;;;3.10;2.90;;;;;;;31.95;28.48;100126.95;214796;1275;141252;-66
2022/07/19 15:02:50;;;;;;;3.60;2.80;;;;;;;31.97;28.29;100127.22;213878;1274;141084;-66
2022/07/19 15:07:55;;;;;;;3.30;2.50;;;;;;;31.96;28.39;100125.55;213828;1276;142841;-66
2022/07/19 15:12:59;;;;;;;5.30;3.20;;;;;;;31.90;28.18;100130.66;214639;1275;151349;-66
2022/07/19 15:18:03;;;;;;;4.00;3.20;;;;;;;31.82;28.09;100127.28;214163;1274;141557;-65
2022/07/19 15:23:13;;;;;;;4.30;2.90;;;;;;;31.76;28.17;100130.05;214060;1274;142126;-65
2022/07/19 15:28:18;;;;;;;3.30;2.70;;;;;;;31.73;28.30;100129.50;213445;1277;141268;-65
2022/07/19 15:33:24;;;;;;;5.10;3.10;;;;;;;31.61;28.29;100129.02;213543;1274;141079;-66
2022/07/19 15:38:29;;;;;;;6.50;3.40;;;;;;;31.47;28.26;100132.55;213966;1274;140736;-66
2022/07/19 15:43:34;;;;;;;;;;;;;;;31.42;28.88;100130.81;213342;1277;140726;-68
2022/07/19 15:48:39;;;;;;;5.50;3.80;;;;;;;31.30;28.52;100129.55;215295;1275;127627;-67
2022/07/19 15:53:44;;;;;;;8.10;4.00;;;;;;;31.24;28.68;100123.98;214367;1273;141264;-66
2022/07/19 15:58:49;;;;;;;;;;;;;;;31.13;28.97;100125.05;214980;1274;141297;-66
2022/07/19 16:03:56;;;;;;;3.00;2.80;;;;;;;31.02;29.14;100124.23;215074;1276;126728;-66
2022/07/19 16:09:03;;;;;;;4.90;4.20;;;;;;;30.95;29.32;100118.11;214057;1272;140335;-65
2022/07/19 16:14:11;;;;;;;6.00;3.50;;;;;;;30.91;29.59;100118.28;215574;1274;140282;-65
2022/07/19 16:19:16;;;;;;;3.80;3.20;;;;;;;30.84;29.63;100121.21;215385;1274;139444;-65
2022/07/19 16:24:21;;;;;;;6.50;3.30;;;;;;;30.77;29.69;100116.59;215418;1276;140481;-66
2022/07/19 16:29:25;;;;;;;5.50;3.70;;;;;;;30.72;29.97;100116.46;216119;1272;139939;-68
2022/07/19 16:34:30;;;;;;;3.80;3.40;;;;;;;30.66;29.94;100117.66;215315;1274;140186;-66
2022/07/19 16:39:35;;;;;;;13.00;4.50;;;;;;;30.60;30.00;100120.83;215970;1274;142153;-66
2022/07/19 16:44:42;;;;;;;4.10;3.70;;;;;;;30.49;30.17;100120.73;215616;1276;141206;-64
2022/07/19 16:49:47;;;;;;;3.20;2.90;;;;;;;30.37;29.98;100124.86;215567;1274;140086;-65
2022/07/19 16:54:50;;;;;;;5.80;3.90;;;;;;;30.26;29.84;100123.34;214529;1275;140887;-65
2022/07/19 16:59:55;;;;;;;5.40;4.30;;;;;;;30.16;30.25;100126.75;214874;1274;139478;-64
2022/07/19 17:05:00;;;;;;;7.60;3.40;;;;;;;30.05;30.59;100129.06;215404;1275;139806;-64
2022/07/19 17:10:06;;;;;;;5.30;3.40;;;;;;;29.93;30.86;100132.09;214581;1275;141059;-64
2022/07/19 17:15:32;;;;;;;13.30;3.10;;;;;;;29.77;30.85;100127.55;214184;1276;140744;-64
2022/07/19 17:20:36;;;;;;;2.80;2.60;;;;;;;29.65;31.37;100124.95;213986;1274;140762;-64
2022/07/19 17:42:19;;;;;;;3.80;2.50;;;;;;;28.66;34.01;100130.04;212903;1315;684846;-64
2022/07/19 17:47:26;;;;;;;3.30;2.90;;;;;;;28.32;34.50;100133.95;212063;1290;139060;-64
2022/07/19 17:52:30;;;;;;;5.10;2.80;;;;;;;28.09;34.91;100138.71;212583;1289;609711;-64
2022/07/19 17:57:36;;;;;;;4.00;3.70;;;;;;;27.81;35.13;100138.83;212346;1289;139956;-63
2022/07/19 18:02:41;;;;;;;3.80;3.50;;;;;;;27.56;36.50;100137.70;213571;1289;139836;-64
2022/07/19 18:07:54;;;;;;;4.00;3.60;;;;;;;27.24;37.52;100138.30;212491;1287;140155;-64
2022/07/19 18:12:56;;;;;;;4.10;3.70;;;;;;;26.92;38.60;100136.23;213323;1288;149768;-64
2022/07/19 18:17:59;;;;;;;7.00;3.60;;;;;;;26.64;39.38;100138.08;212178;1289;140893;-64
2022/07/19 18:23:05;;;;;;;7.70;4.40;;;;;;;26.36;40.19;100137.76;213442;1282;139158;-62
2022/07/19 18:28:09;;;;;;;4.60;3.90;;;;;;;26.06;41.20;100139.08;212875;1283;139598;-64
2022/07/19 18:33:15;;;;;;;4.00;3.50;;;;;;;25.73;41.91;100133.95;212625;1283;140916;-63
2022/07/19 18:38:18;;;;;;;3.30;2.70;;;;;;;25.44;43.15;100140.39;213558;1282;142033;-63
2022/07/19 18:43:23;;;;;;;5.10;3.90;;;;;;;25.18;44.39;100146.14;212819;1283;140545;-64
2022/07/19 18:48:31;;;;;;;4.70;3.50;;;;;;;24.90;44.81;100148.68;213458;1282;140517;-64
2022/07/19 18:53:38;;;;;;;3.90;3.50;;;;;;;24.59;45.37;100156.48;213617;1282;140249;-64
2022/07/19 18:58:42;;;;;;;4.20;3.80;;;;;;;24.24;46.15;100162.53;212787;1282;141212;-64
2022/07/19 19:03:46;;;;;;;11.20;4.30;;;;;;;23.88;46.61;100165.60;212384;1283;141515;-64
2022/07/19 19:08:49;;;;;;;5.60;4.30;;;;;;;23.64;47.25;100166.00;213645;1282;140026;-64
2022/07/19 19:13:55;;;;;;;6.30;3.90;;;;;;;23.36;47.55;100167.58;212605;1281;139946;-64
2022/07/19 19:18:59;;;;;;;6.70;4.40;;;;;;;23.01;48.26;100170.30;213040;1283;141363;-64
2022/07/19 19:24:04;;;;;;;6.30;3.90;;;;;;;22.69;49.00;100173.33;212451;1282;140172;-64
2022/07/19 19:29:09;;;;;;;7.20;4.40;;;;;;;22.35;49.56;100175.48;213303;1283;140938;-64
2022/07/19 19:34:13;;;;;;;4.60;4.10;;;;;;;22.16;49.89;100180.31;213364;1283;141392;-64
2022/07/19 19:39:17;;;;;;;5.90;3.90;;;;;;;21.97;50.45;100189.23;213561;1281;139231;-64
2022/07/19 19:44:23;;;;;;;5.80;3.80;;;;;;;21.82;51.06;100191.32;212598;1284;139300;-65
2022/07/19 19:49:27;;;;;;;5.10;4.60;;;;;;;21.58;51.34;100183.97;213895;1282;139275;-65
2022/07/19 19:54:32;;;;;;;8.60;4.80;;;;;;;21.36;52.03;100187.33;212945;1283;141599;-64
2022/07/19 19:59:35;;;;;;;8.00;4.10;;;;;;;21.20;52.47;100189.13;212772;1282;140180;-64
2022/07/19 20:04:38;;;;;;;9.90;4.80;;;;;;;21.03;52.99;100188.48;214641;1282;139237;-64
2022/07/19 20:09:41;;;;;;;8.10;4.60;;;;;;;20.85;53.32;100192.36;214390;1283;139663;-64
2022/07/19 20:14:44;;;;;;;8.20;4.30;;;;;;;20.70;53.69;100197.29;214072;1282;139044;-64
2022/07/19 20:19:50;;;;;;;8.10;4.80;;;;;;;20.48;54.12;100196.52;214109;1282;142089;-64
2022/07/19 20:24:55;;;;;;;6.20;4.60;;;;;;;20.36;54.63;100200.70;212712;1283;141252;-63
2022/07/19 20:29:58;;;;;;;3.80;3.50;;;;;;;20.19;55.03;100201.95;213406;1282;141776;-64
2022/07/19 20:35:01;;;;;;;4.00;3.70;;;;;;;20.05;55.67;100206.75;213699;1281;140358;-64
2022/07/19 20:40:05;;;;;;;5.50;3.70;;;;;;;19.99;56.12;100212.05;213222;1282;140125;-64
2022/07/19 20:45:08;;;;;;;6.60;4.60;;;;;;;19.91;56.28;100213.20;213295;1282;139935;-64
2022/07/19 20:50:11;;;;;;;3.90;3.50;;;;;;;19.78;56.50;100213.06;212343;1282;140356;-64
2022/07/19 20:55:14;;;;;;;6.60;3.90;;;;;;;19.69;56.77;100213.52;212757;1282;139997;-64
2022/07/19 21:00:19;;;;;;;4.20;3.80;;;;;;;19.59;57.17;100209.60;213112;1283;138959;-65
2022/07/19 21:05:23;;;;;;;7.50;4.20;;;;;;;19.49;57.23;100212.26;212529;1283;139215;-64
2022/07/19 21:10:27;;;;;;;5.20;3.90;;;;;;;19.18;57.32;100207.98;212832;1282;143094;-66
2022/07/19 21:15:31;;;;;;;4.70;4.30;;;;;;;18.98;57.98;100210.89;212222;1282;139968;-64
2022/07/19 21:20:35;;;;;;;26.00;5.70;;;;;;;18.94;58.46;100209.84;212327;1282;139590;-64
2022/07/19 21:25:38;;;;;;;5.60;4.50;;;;;;;18.91;58.71;100214.73;212985;1283;139580;-65
2022/07/19 21:30:42;;;;;;;5.10;4.30;;;;;;;18.88;58.90;100211.81;212968;1282;140562;-65
2022/07/19 21:35:48;;;;;;;6.50;5.60;;;;;;;18.84;59.10;100215.23;213480;1282;139830;-65
2022/07/19 21:40:52;;;;;;;4.90;4.30;;;;;;;18.68;59.04;100221.94;214089;1283;140185;-65
2022/07/19 21:45:56;;;;;;;7.60;4.80;;;;;;;18.35;59.42;100217.33;213452;1282;139085;-65
2022/07/19 21:50:59;;;;;;;6.70;4.30;;;;;;;18.26;60.12;100217.25;214920;1277;139471;-65
2022/07/19 21:56:02;;;;;;;7.00;5.70;;;;;;;18.27;60.25;100217.26;213907;1279;139406;-64
2022/07/19 22:01:05;;;;;;;5.60;5.10;;;;;;;18.29;60.46;100219.62;215836;1277;140699;-65
2022/07/19 22:06:08;;;;;;;6.30;4.60;;;;;;;18.28;60.62;100221.52;215506;1277;139786;-65
2022/07/19 22:11:10;;;;;;;5.50;4.70;;;;;;;18.11;60.58;100226.16;215597;1277;140794;-65
2022/07/19 22:16:14;;;;;;;8.30;5.50;;;;;;;18.01;60.97;100229.49;214385;1278;139683;-65
2022/07/19 22:21:17;;;;;;;7.20;5.10;;;;;;;17.93;61.02;100233.65;214754;1277;224596;-66
2022/07/19 22:26:19;;;;;;;6.10;5.20;;;;;;;17.80;61.24;100235.58;213244;1277;140682;-65
2022/07/19 22:31:21;;;;;;;7.90;5.70;;;;;;;17.79;61.73;100238.87;214129;1277;142118;-65
2022/07/19 22:36:24;;;;;;;8.10;5.20;;;;;;;17.77;61.89;100242.27;213493;1277;229530;-66
2022/07/19 22:41:27;;;;;;;6.60;5.80;;;;;;;17.56;62.07;100242.95;213608;1277;140897;-64
2022/07/19 22:46:30;;;;;;;8.90;6.30;;;;;;;17.31;62.42;100249.64;214528;1276;140056;-65
2022/07/19 22:51:32;;;;;;;9.50;6.20;;;;;;;17.19;62.79;100245.99;213033;1277;141460;-64
2022/07/19 22:56:34;;;;;;;6.20;5.70;;;;;;;17.13;63.36;100237.73;213294;1277;141278;-65
2022/07/19 23:01:36;;;;;;;10.00;5.90;;;;;;;17.10;63.45;100239.63;213723;1277;140443;-65
2022/07/19 23:06:45;;;;;;;10.70;5.50;;;;;;;17.06;63.63;100244.73;213479;1277;139885;-64
2022/07/19 23:11:47;;;;;;;9.40;6.00;;;;;;;16.95;63.90;100245.60;213894;1277;141180;-64
2022/07/19 23:16:50;;;;;;;10.40;6.10;;;;;;;16.94;64.11;100245.38;213581;1277;141782;-65
2022/07/19 23:21:53;;;;;;;15.80;6.80;;;;;;;16.91;64.18;100255.08;213316;1277;140251;-64
2022/07/19 23:26:55;;;;;;;7.20;6.20;;;;;;;16.75;64.30;100264.98;213278;1277;141618;-65
2022/07/19 23:31:58;;;;;;;6.70;5.90;;;;;;;16.67;64.67;100268.33;213597;1279;140344;-64
2022/07/19 23:37:20;;;;;;;7.10;6.00;;;;;;;16.63;64.76;100269.26;212781;1277;141733;-65